sensor_id;sensor_type;location;lat;lon;timestamp;pressure;altitude;pressure_sealevel;temperature;humidity
44385;BME280;30101;32.778;34.994;2023-01-25T00:01:05;98001.69;;;13.50;69.63
44385;BME280;30101;32.778;34.994;2023-01-25T00:06:08;98004.81;;;13.47;68.68
44385;BME280;30101;32.778;34.994;2023-01-25T00:11:11;97989.78;;;13.46;68.88
44385;BME280;30101;32.778;34.994;2023-01-25T00:16:15;97982.78;;;13.45;69.34
44385;BME280;30101;32.778;34.994;2023-01-25T00:21:19;97984.03;;;13.43;68.68
44385;BME280;30101;32.778;34.994;2023-01-25T00:26:22;97990.44;;;13.42;69.15
44385;BME280;30101;32.778;34.994;2023-01-25T00:31:53;97984.03;;;13.43;69.13
44385;BME280;30101;32.778;34.994;2023-01-25T00:37:24;97983.78;;;13.44;69.34
44385;BME280;30101;32.778;34.994;2023-01-25T00:42:32;97984.59;;;13.45;69.54
44385;BME280;30101;32.778;34.994;2023-01-25T00:47:35;97976.78;;;13.43;69.62
44385;BME280;30101;32.778;34.994;2023-01-25T00:52:38;97971.06;;;13.40;69.10
44385;BME280;30101;32.778;34.994;2023-01-25T00:57:42;97971.28;;;13.38;69.41
44385;BME280;30101;32.778;34.994;2023-01-25T01:02:45;97970.09;;;13.34;69.46
44385;BME280;30101;32.778;34.994;2023-01-25T01:07:49;97962.28;;;13.33;69.41
44385;BME280;30101;32.778;34.994;2023-01-25T01:12:53;97958.97;;;13.31;69.66
44385;BME280;30101;32.778;34.994;2023-01-25T01:17:57;97965.97;;;13.32;69.66
44385;BME280;30101;32.778;34.994;2023-01-25T01:23:00;97953.38;;;13.32;69.75
44385;BME280;30101;32.778;34.994;2023-01-25T01:28:03;97959.22;;;13.29;69.78
44385;BME280;30101;32.778;34.994;2023-01-25T01:33:07;97958.63;;;13.27;69.97
44385;BME280;30101;32.778;34.994;2023-01-25T01:38:11;97960.91;;;13.23;69.61
44385;BME280;30101;32.778;34.994;2023-01-25T01:43:17;97957.84;;;13.20;69.41
44385;BME280;30101;32.778;34.994;2023-01-25T01:53:32;97953.34;;;13.20;69.68
44385;BME280;30101;32.778;34.994;2023-01-25T01:58:37;97944.63;;;13.18;70.02
44385;BME280;30101;32.778;34.994;2023-01-25T02:03:42;97947.53;;;13.17;70.11
44385;BME280;30101;32.778;34.994;2023-01-25T02:08:46;97942.41;;;13.15;70.26
44385;BME280;30101;32.778;34.994;2023-01-25T02:13:50;97952.31;;;13.15;69.87
44385;BME280;30101;32.778;34.994;2023-01-25T02:18:57;97948.81;;;13.14;70.18
44385;BME280;30101;32.778;34.994;2023-01-25T02:24:22;97948.44;;;13.11;70.15
44385;BME280;30101;32.778;34.994;2023-01-25T02:29:30;97942.84;;;13.12;69.99
44385;BME280;30101;32.778;34.994;2023-01-25T02:34:34;97944.13;;;13.10;70.01
44385;BME280;30101;32.778;34.994;2023-01-25T02:39:39;97954.03;;;13.09;70.26
44385;BME280;30101;32.778;34.994;2023-01-25T02:44:44;97942.69;;;13.07;69.98
44385;BME280;30101;32.778;34.994;2023-01-25T02:49:49;97951.19;;;13.04;70.29
44385;BME280;30101;32.778;34.994;2023-01-25T02:54:53;97952.44;;;13.02;70.01
44385;BME280;30101;32.778;34.994;2023-01-25T02:59:56;97955.31;;;13.00;69.87
44385;BME280;30101;32.778;34.994;2023-01-25T03:05:01;97957.59;;;13.03;70.07
44385;BME280;30101;32.778;34.994;2023-01-25T03:10:05;97954.50;;;13.00;70.26
44385;BME280;30101;32.778;34.994;2023-01-25T03:15:10;97957.81;;;13.02;70.22
44385;BME280;30101;32.778;34.994;2023-01-25T03:20:13;97965.03;;;13.01;70.00
44385;BME280;30101;32.778;34.994;2023-01-25T03:25:19;97965.84;;;13.02;70.14
44385;BME280;30101;32.778;34.994;2023-01-25T03:30:32;97963.59;;;12.99;70.42
44385;BME280;30101;32.778;34.994;2023-01-25T03:35:35;97969.94;;;13.04;70.26
44385;BME280;30101;32.778;34.994;2023-01-25T03:40:40;97972.63;;;13.04;70.42
44385;BME280;30101;32.778;34.994;2023-01-25T03:45:54;97963.75;;;13.04;70.56
44385;BME280;30101;32.778;34.994;2023-01-25T03:51:00;97964.00;;;13.02;70.63
44385;BME280;30101;32.778;34.994;2023-01-25T03:56:08;97975.53;;;13.03;70.88
44385;BME280;30101;32.778;34.994;2023-01-25T04:01:17;97970.16;;;13.03;71.00
44385;BME280;30101;32.778;34.994;2023-01-25T04:06:22;97963.38;;;13.00;71.03
44385;BME280;30101;32.778;34.994;2023-01-25T04:11:27;97968.53;;;13.02;70.88
44385;BME280;30101;32.778;34.994;2023-01-25T04:16:32;97968.53;;;13.02;71.00
44385;BME280;30101;32.778;34.994;2023-01-25T04:22:01;97973.06;;;13.01;70.84
44385;BME280;30101;32.778;34.994;2023-01-25T04:27:10;97972.69;;;12.98;71.12
44385;BME280;30101;32.778;34.994;2023-01-25T04:32:20;97980.13;;;12.95;71.14
44385;BME280;30101;32.778;34.994;2023-01-25T04:37:24;97985.31;;;12.90;71.23
44385;BME280;30101;32.778;34.994;2023-01-25T04:42:32;97986.19;;;12.84;70.89
44385;BME280;30101;32.778;34.994;2023-01-25T04:47:35;97989.09;;;12.83;70.63
44385;BME280;30101;32.778;34.994;2023-01-25T04:52:39;97987.44;;;12.82;70.74
44385;BME280;30101;32.778;34.994;2023-01-25T04:57:43;97999.38;;;12.86;70.78
44385;BME280;30101;32.778;34.994;2023-01-25T05:02:51;98002.22;;;12.91;70.63
44385;BME280;30101;32.778;34.994;2023-01-25T05:08:13;97997.22;;;12.94;70.18
44385;BME280;30101;32.778;34.994;2023-01-25T05:13:17;98001.56;;;12.95;70.05
44385;BME280;30101;32.778;34.994;2023-01-25T05:18:22;98000.31;;;12.98;69.77
44385;BME280;30101;32.778;34.994;2023-01-25T05:23:26;97998.66;;;12.97;69.49
44385;BME280;30101;32.778;34.994;2023-01-25T05:28:32;97998.03;;;13.02;69.24
44385;BME280;30101;32.778;34.994;2023-01-25T05:33:49;98009.09;;;13.05;68.81
44385;BME280;30101;32.778;34.994;2023-01-25T05:38:55;98005.78;;;13.10;68.59
44385;BME280;30101;32.778;34.994;2023-01-25T05:44:02;98006.75;;;13.15;68.29
44385;BME280;30101;32.778;34.994;2023-01-25T05:49:06;98005.91;;;13.21;67.95
44385;BME280;30101;32.778;34.994;2023-01-25T05:54:15;98015.06;;;13.32;67.72
44385;BME280;30101;32.778;34.994;2023-01-25T05:59:26;98021.81;;;13.41;67.77
44385;BME280;30101;32.778;34.994;2023-01-25T06:04:30;98021.50;;;13.49;67.37
44385;BME280;30101;32.778;34.994;2023-01-25T06:09:35;98040.59;;;13.60;67.35
44385;BME280;30101;32.778;34.994;2023-01-25T06:14:38;98029.13;;;13.71;67.06
44385;BME280;30101;32.778;34.994;2023-01-25T06:19:42;98043.13;;;14.10;66.06
44385;BME280;30101;32.778;34.994;2023-01-25T06:25:05;98034.09;;;14.71;64.99
44385;BME280;30101;32.778;34.994;2023-01-25T06:30:10;98038.47;;;15.19;63.84
44385;BME280;30101;32.778;34.994;2023-01-25T06:35:13;98035.56;;;15.44;62.84
44385;BME280;30101;32.778;34.994;2023-01-25T06:40:25;98035.66;;;14.90;63.98
44385;BME280;30101;32.778;34.994;2023-01-25T06:45:56;98049.47;;;14.64;64.57
44385;BME280;30101;32.778;34.994;2023-01-25T06:51:01;98043.59;;;14.55;64.76
44385;BME280;30101;32.778;34.994;2023-01-25T06:56:14;98054.13;;;14.56;64.83
44385;BME280;30101;32.778;34.994;2023-01-25T07:01:22;98050.75;;;14.61;64.18
44385;BME280;30101;32.778;34.994;2023-01-25T07:06:31;98060.34;;;14.69;63.59
44385;BME280;30101;32.778;34.994;2023-01-25T07:11:35;98061.53;;;14.73;62.82
44385;BME280;30101;32.778;34.994;2023-01-25T07:16:38;98064.94;;;14.80;62.47
44385;BME280;30101;32.778;34.994;2023-01-25T07:21:42;98065.44;;;14.89;61.60
44385;BME280;30101;32.778;34.994;2023-01-25T07:26:52;98064.88;;;14.98;60.53
44385;BME280;30101;32.778;34.994;2023-01-25T07:32:18;98070.88;;;15.12;60.05
44385;BME280;30101;32.778;34.994;2023-01-25T07:37:21;98077.91;;;15.25;60.51
44385;BME280;30101;32.778;34.994;2023-01-25T07:42:24;98080.59;;;15.36;60.37
44385;BME280;30101;32.778;34.994;2023-01-25T07:47:45;98073.72;;;15.41;59.66
44385;BME280;30101;32.778;34.994;2023-01-25T07:52:48;98077.25;;;15.53;58.60
44385;BME280;30101;32.778;34.994;2023-01-25T07:57:54;98075.84;;;15.62;58.03
44385;BME280;30101;32.778;34.994;2023-01-25T08:02:58;98075.28;;;15.72;57.11
44385;BME280;30101;32.778;34.994;2023-01-25T08:08:01;98079.25;;;15.81;57.97
44385;BME280;30101;32.778;34.994;2023-01-25T08:13:04;98072.66;;;15.88;56.52
44385;BME280;30101;32.778;34.994;2023-01-25T08:18:09;98060.84;;;15.89;55.99
44385;BME280;30101;32.778;34.994;2023-01-25T08:23:12;98064.25;;;15.97;57.32
44385;BME280;30101;32.778;34.994;2023-01-25T08:28:15;98064.94;;;16.04;56.13
44385;BME280;30101;32.778;34.994;2023-01-25T08:33:18;98054.03;;;16.10;56.48
44385;BME280;30101;32.778;34.994;2023-01-25T08:38:22;98052.00;;;16.17;55.84
44385;BME280;30101;32.778;34.994;2023-01-25T08:43:25;98043.44;;;16.21;55.64
44385;BME280;30101;32.778;34.994;2023-01-25T08:48:28;98033.34;;;16.28;55.88
44385;BME280;30101;32.778;34.994;2023-01-25T08:53:32;98034.13;;;16.40;55.09
44385;BME280;30101;32.778;34.994;2023-01-25T08:58:38;98034.88;;;16.52;54.82
44385;BME280;30101;32.778;34.994;2023-01-25T09:03:46;98022.22;;;16.53;54.37
44385;BME280;30101;32.778;34.994;2023-01-25T09:08:49;98018.81;;;16.57;54.06
44385;BME280;30101;32.778;34.994;2023-01-25T09:13:59;98012.78;;;16.67;53.95
44385;BME280;30101;32.778;34.994;2023-01-25T09:19:35;98013.25;;;16.76;53.81
44385;BME280;30101;32.778;34.994;2023-01-25T09:25:09;97999.59;;;16.82;53.63
44385;BME280;30101;32.778;34.994;2023-01-25T09:30:39;98000.50;;;16.88;53.30
44385;BME280;30101;32.778;34.994;2023-01-25T09:36:00;97986.28;;;16.92;53.13
44385;BME280;30101;32.778;34.994;2023-01-25T09:41:38;97975.16;;;17.06;52.48
44385;BME280;30101;32.778;34.994;2023-01-25T09:46:44;97965.09;;;17.18;52.36
44385;BME280;30101;32.778;34.994;2023-01-25T09:57:00;97949.22;;;17.21;51.98
44385;BME280;30101;32.778;34.994;2023-01-25T10:07:55;97948.88;;;17.35;51.91
44385;BME280;30101;32.778;34.994;2023-01-25T10:13:00;97942.09;;;17.32;51.95
44385;BME280;30101;32.778;34.994;2023-01-25T10:29:28;97943.47;;;17.35;52.33
44385;BME280;30101;32.778;34.994;2023-01-25T10:34:22;97934.00;;;17.32;52.76
44385;BME280;30101;32.778;34.994;2023-01-25T10:39:28;97925.00;;;17.26;53.61
44385;BME280;30101;32.778;34.994;2023-01-25T10:44:33;97929.78;;;17.19;54.31
44385;BME280;30101;32.778;34.994;2023-01-25T10:49:43;97923.56;;;17.19;54.69
44385;BME280;30101;32.778;34.994;2023-01-25T10:55:07;97925.63;;;17.12;54.92
44385;BME280;30101;32.778;34.994;2023-01-25T11:00:24;97929.22;;;17.01;55.72
44385;BME280;30101;32.778;34.994;2023-01-25T11:05:37;97924.56;;;16.96;56.04
44385;BME280;30101;32.778;34.994;2023-01-25T11:10:41;97922.47;;;16.98;56.38
44385;BME280;30101;32.778;34.994;2023-01-25T11:16:09;97912.97;;;16.95;56.37
44385;BME280;30101;32.778;34.994;2023-01-25T11:21:18;97913.78;;;16.96;57.07
44385;BME280;30101;32.778;34.994;2023-01-25T11:26:22;97907.56;;;16.95;57.07
44385;BME280;30101;32.778;34.994;2023-01-25T11:31:25;97907.56;;;16.95;56.82
44385;BME280;30101;32.778;34.994;2023-01-25T12:08:56;97894.84;;;16.91;58.29
44385;BME280;30101;32.778;34.994;2023-01-25T12:14:26;97902.16;;;16.95;58.24
44385;BME280;30101;32.778;34.994;2023-01-25T12:25:26;97902.97;;;16.96;58.48
44385;BME280;30101;32.778;34.994;2023-01-25T12:30:50;97905.13;;;16.94;58.57
44385;BME280;30101;32.778;34.994;2023-01-25T12:41:25;97901.09;;;16.96;58.51
44385;BME280;30101;32.778;34.994;2023-01-25T12:46:39;97907.81;;;16.94;58.48
44385;BME280;30101;32.778;34.994;2023-01-25T12:51:46;97902.34;;;16.89;58.28
44385;BME280;30101;32.778;34.994;2023-01-25T13:07:43;97895.81;;;16.85;58.20
44385;BME280;30101;32.778;34.994;2023-01-25T13:12:51;97891.66;;;16.77;57.88
44385;BME280;30101;32.778;34.994;2023-01-25T13:17:54;97888.31;;;16.70;58.55
44385;BME280;30101;32.778;34.994;2023-01-25T13:22:58;97882.91;;;16.70;58.23
44385;BME280;30101;32.778;34.994;2023-01-25T13:33:45;97884.94;;;16.63;58.18
44385;BME280;30101;32.778;34.994;2023-01-25T13:38:49;97882.41;;;16.56;58.32
44385;BME280;30101;32.778;34.994;2023-01-25T13:44:19;97880.59;;;16.45;58.27
44385;BME280;30101;32.778;34.994;2023-01-25T13:49:56;97894.72;;;16.35;58.48
44385;BME280;30101;32.778;34.994;2023-01-25T13:55:00;97893.81;;;16.30;58.76
44385;BME280;30101;32.778;34.994;2023-01-25T14:00:07;97898.78;;;16.21;59.29
44385;BME280;30101;32.778;34.994;2023-01-25T14:05:20;97903.50;;;16.14;59.24
44385;BME280;30101;32.778;34.994;2023-01-25T14:10:25;97910.44;;;16.10;59.64
44385;BME280;30101;32.778;34.994;2023-01-25T14:15:31;97914.91;;;16.04;59.59
44385;BME280;30101;32.778;34.994;2023-01-25T14:20:34;97915.63;;;16.00;59.59
44385;BME280;30101;32.778;34.994;2023-01-25T14:25:39;97918.22;;;15.95;60.07
44385;BME280;30101;32.778;34.994;2023-01-25T14:30:42;97917.81;;;15.86;60.12
44385;BME280;30101;32.778;34.994;2023-01-25T14:35:47;97910.22;;;15.71;60.76
44385;BME280;30101;32.778;34.994;2023-01-25T14:46:34;97927.09;;;15.55;61.48
44385;BME280;30101;32.778;34.994;2023-01-25T15:02:01;97908.31;;;15.20;62.77
44385;BME280;30101;32.778;34.994;2023-01-25T15:07:05;97924.25;;;15.09;62.44
44385;BME280;30101;32.778;34.994;2023-01-25T15:12:30;97926.94;;;14.98;62.47
44385;BME280;30101;32.778;34.994;2023-01-25T15:17:42;97922.13;;;14.88;63.04
44385;BME280;30101;32.778;34.994;2023-01-25T15:22:46;97928.44;;;14.82;63.24
44385;BME280;30101;32.778;34.994;2023-01-25T15:27:49;97931.25;;;14.75;63.06
44385;BME280;30101;32.778;34.994;2023-01-25T15:32:52;97932.78;;;14.71;63.30
44385;BME280;30101;32.778;34.994;2023-01-25T15:37:57;97933.47;;;14.67;63.37
44385;BME280;30101;32.778;34.994;2023-01-25T15:43:01;97931.94;;;14.59;63.77
44385;BME280;30101;32.778;34.994;2023-01-25T15:48:13;97939.53;;;14.62;64.15
44385;BME280;30101;32.778;34.994;2023-01-25T15:53:18;97944.56;;;14.59;64.22
44385;BME280;30101;32.778;34.994;2023-01-25T15:58:56;97952.47;;;14.53;63.92
44385;BME280;30101;32.778;34.994;2023-01-25T16:03:51;97957.47;;;14.50;64.13
44385;BME280;30101;32.778;34.994;2023-01-25T16:08:54;97956.91;;;14.48;64.63
44385;BME280;30101;32.778;34.994;2023-01-25T16:13:57;97960.66;;;14.47;64.31
44385;BME280;30101;32.778;34.994;2023-01-25T16:19:00;97955.09;;;14.42;64.04
44385;BME280;30101;32.778;34.994;2023-01-25T16:24:04;97966.09;;;14.40;64.33
44385;BME280;30101;32.778;34.994;2023-01-25T16:29:09;97956.03;;;14.36;64.35
44385;BME280;30101;32.778;34.994;2023-01-25T16:34:12;97972.72;;;14.38;63.99
44385;BME280;30101;32.778;34.994;2023-01-25T16:39:18;97977.28;;;14.37;64.24
44385;BME280;30101;32.778;34.994;2023-01-25T16:44:24;97977.94;;;14.32;63.77
44385;BME280;30101;32.778;34.994;2023-01-25T16:49:27;97978.44;;;14.29;63.96
44385;BME280;30101;32.778;34.994;2023-01-25T16:54:31;97979.47;;;14.28;63.71
44385;BME280;30101;32.778;34.994;2023-01-25T16:59:35;97976.66;;;14.23;63.66
44385;BME280;30101;32.778;34.994;2023-01-25T17:04:38;97979.78;;;14.20;63.86
44385;BME280;30101;32.778;34.994;2023-01-25T17:09:42;97977.31;;;14.19;63.71
44385;BME280;30101;32.778;34.994;2023-01-25T17:14:48;97981.72;;;14.13;63.75
44385;BME280;30101;32.778;34.994;2023-01-25T17:19:52;97979.28;;;14.12;63.51
44385;BME280;30101;32.778;34.994;2023-01-25T17:24:55;97986.53;;;14.11;63.66
44385;BME280;30101;32.778;34.994;2023-01-25T17:29:58;97987.19;;;14.07;63.50
44385;BME280;30101;32.778;34.994;2023-01-25T17:35:02;98000.84;;;14.05;63.67
44385;BME280;30101;32.778;34.994;2023-01-25T17:40:06;98004.59;;;14.04;63.93
44385;BME280;30101;32.778;34.994;2023-01-25T17:45:11;98004.66;;;13.97;64.08
44385;BME280;30101;32.778;34.994;2023-01-25T18:32:41;98006.09;;;13.63;65.42
44385;BME280;30101;32.778;34.994;2023-01-25T18:37:51;98008.75;;;13.63;65.43
44385;BME280;30101;32.778;34.994;2023-01-25T18:42:55;98015.41;;;13.61;65.64
44385;BME280;30101;32.778;34.994;2023-01-25T18:48:03;98003.47;;;13.57;65.85
44385;BME280;30101;32.778;34.994;2023-01-25T18:53:13;98003.69;;;13.55;65.91
44385;BME280;30101;32.778;34.994;2023-01-25T18:58:17;98000.44;;;13.53;66.14
44385;BME280;30101;32.778;34.994;2023-01-25T19:03:21;97998.81;;;13.52;66.27
44385;BME280;30101;32.778;34.994;2023-01-25T19:08:25;98009.72;;;13.50;66.41
44385;BME280;30101;32.778;34.994;2023-01-25T19:13:32;98001.91;;;13.49;66.54
44385;BME280;30101;32.778;34.994;2023-01-25T19:18:37;98002.13;;;13.47;66.55
44385;BME280;30101;32.778;34.994;2023-01-25T19:23:40;98005.25;;;13.44;66.51
44385;BME280;30101;32.778;34.994;2023-01-25T19:28:45;98010.25;;;13.41;66.46
44385;BME280;30101;32.778;34.994;2023-01-25T19:33:55;98009.88;;;13.37;66.52
44385;BME280;30101;32.778;34.994;2023-01-25T19:38:58;98011.72;;;13.37;66.63
44385;BME280;30101;32.778;34.994;2023-01-25T19:44:02;98012.78;;;13.36;66.55
44385;BME280;30101;32.778;34.994;2023-01-25T19:49:08;98007.88;;;13.33;66.66
44385;BME280;30101;32.778;34.994;2023-01-25T19:54:16;98004.41;;;13.26;66.96
44385;BME280;30101;32.778;34.994;2023-01-25T19:59:21;98007.72;;;13.28;66.73
44385;BME280;30101;32.778;34.994;2023-01-25T20:04:25;98005.22;;;13.26;66.87
44385;BME280;30101;32.778;34.994;2023-01-25T20:09:28;98007.09;;;13.26;66.81
44385;BME280;30101;32.778;34.994;2023-01-25T20:14:31;98008.94;;;13.25;66.59
44385;BME280;30101;32.778;34.994;2023-01-25T20:19:35;98009.19;;;13.23;66.73
44385;BME280;30101;32.778;34.994;2023-01-25T20:24:39;98012.69;;;13.24;66.67
44385;BME280;30101;32.778;34.994;2023-01-25T20:29:42;98006.72;;;13.22;66.42
44385;BME280;30101;32.778;34.994;2023-01-25T20:34:45;98008.78;;;13.20;66.80
44385;BME280;30101;32.778;34.994;2023-01-25T20:39:49;98006.94;;;13.20;66.57
44385;BME280;30101;32.778;34.994;2023-01-25T20:44:53;98009.41;;;13.22;66.60
44385;BME280;30101;32.778;34.994;2023-01-25T20:49:57;98006.72;;;13.22;66.68
44385;BME280;30101;32.778;34.994;2023-01-25T20:55:00;98004.03;;;13.22;66.62
44385;BME280;30101;32.778;34.994;2023-01-25T21:00:04;97993.34;;;13.15;66.67
44385;BME280;30101;32.778;34.994;2023-01-25T21:05:08;98002.63;;;13.13;66.73
44385;BME280;30101;32.778;34.994;2023-01-25T21:10:11;98002.63;;;13.13;66.82
44385;BME280;30101;32.778;34.994;2023-01-25T21:15:15;97993.63;;;13.07;66.75
44385;BME280;30101;32.778;34.994;2023-01-25T21:20:18;98001.66;;;13.07;66.57
44385;BME280;30101;32.778;34.994;2023-01-25T21:25:21;97998.97;;;13.07;66.53
44385;BME280;30101;32.778;34.994;2023-01-25T21:30:24;97990.94;;;13.07;66.26
44385;BME280;30101;32.778;34.994;2023-01-25T21:35:31;97990.94;;;13.07;66.22
44385;BME280;30101;32.778;34.994;2023-01-25T21:40:35;97997.13;;;13.08;66.45
44385;BME280;30101;32.778;34.994;2023-01-25T21:45:38;98004.34;;;13.07;66.30
44385;BME280;30101;32.778;34.994;2023-01-25T21:50:41;98005.84;;;13.03;66.09
44385;BME280;30101;32.778;34.994;2023-01-25T21:55:46;98009.56;;;13.02;66.11
44385;BME280;30101;32.778;34.994;2023-01-25T22:00:49;97993.91;;;12.99;66.14
44385;BME280;30101;32.778;34.994;2023-01-25T22:05:53;97999.88;;;13.01;66.12
44385;BME280;30101;32.778;34.994;2023-01-25T22:11:03;97985.03;;;12.99;66.07
44385;BME280;30101;32.778;34.994;2023-01-25T22:16:08;97994.72;;;13.00;65.88
44385;BME280;30101;32.778;34.994;2023-01-25T22:21:19;97993.31;;;12.97;66.41
44385;BME280;30101;32.778;34.994;2023-01-25T22:26:25;97999.09;;;12.94;66.30
44385;BME280;30101;32.778;34.994;2023-01-25T22:31:31;97995.22;;;12.90;66.49
44385;BME280;30101;32.778;34.994;2023-01-25T22:36:34;98000.19;;;12.86;66.14
44385;BME280;30101;32.778;34.994;2023-01-25T22:41:37;97985.59;;;12.82;66.00
44385;BME280;30101;32.778;34.994;2023-01-25T22:46:41;97984.75;;;12.82;66.41
44385;BME280;30101;32.778;34.994;2023-01-25T22:51:44;97975.53;;;12.78;66.18
44385;BME280;30101;32.778;34.994;2023-01-25T22:56:47;97978.63;;;12.75;66.10
44385;BME280;30101;32.778;34.994;2023-01-25T23:01:50;97978.44;;;12.76;66.39
44385;BME280;30101;32.778;34.994;2023-01-25T23:06:53;97976.78;;;12.75;66.40
44385;BME280;30101;32.778;34.994;2023-01-25T23:11:57;97981.13;;;12.76;66.55
44385;BME280;30101;32.778;34.994;2023-01-25T23:17:00;97991.84;;;12.76;66.70
44385;BME280;30101;32.778;34.994;2023-01-25T23:22:03;97987.94;;;12.72;66.91
44385;BME280;30101;32.778;34.994;2023-01-25T23:27:06;97991.25;;;12.67;67.16
44385;BME280;30101;32.778;34.994;2023-01-25T23:32:09;97985.97;;;12.61;67.25
44385;BME280;30101;32.778;34.994;2023-01-25T23:37:12;97986.19;;;12.59;67.08
44385;BME280;30101;32.778;34.994;2023-01-25T23:42:18;97982.06;;;12.57;67.48
44385;BME280;30101;32.778;34.994;2023-01-25T23:47:22;97979.44;;;12.50;67.16
44385;BME280;30101;32.778;34.994;2023-01-25T23:52:25;97982.09;;;12.50;67.20
44385;BME280;30101;32.778;34.994;2023-01-25T23:57:29;97972.06;;;12.46;67.19
